sensor_id;sensor_type;location;lat;lon;timestamp;P1;durP1;ratioP1;P2;durP2;ratioP2
27576;SDS011;15011;53.380;10.034;2024-01-25T00:02:09;20.73;;;3.90;;
27576;SDS011;15011;53.380;10.034;2024-01-25T00:07:10;19.33;;;3.93;;
27576;SDS011;15011;53.380;10.034;2024-01-25T00:12:10;19.52;;;4.20;;
27576;SDS011;15011;53.380;10.034;2024-01-25T00:17:11;18.42;;;3.25;;
27576;SDS011;15011;53.380;10.034;2024-01-25T00:22:11;15.53;;;3.17;;
27576;SDS011;15011;53.380;10.034;2024-01-25T00:27:12;15.23;;;3.07;;
27576;SDS011;15011;53.380;10.034;2024-01-25T00:32:12;22.67;;;3.17;;
27576;SDS011;15011;53.380;10.034;2024-01-25T00:37:13;20.73;;;3.43;;
27576;SDS011;15011;53.380;10.034;2024-01-25T00:42:13;13.98;;;2.63;;
27576;SDS011;15011;53.380;10.034;2024-01-25T00:47:14;23.63;;;4.25;;
27576;SDS011;15011;53.380;10.034;2024-01-25T00:52:15;16.23;;;3.47;;
27576;SDS011;15011;53.380;10.034;2024-01-25T00:57:16;15.32;;;3.50;;
27576;SDS011;15011;53.380;10.034;2024-01-25T01:02:17;14.48;;;2.83;;
27576;SDS011;15011;53.380;10.034;2024-01-25T01:07:17;28.50;;;3.67;;
27576;SDS011;15011;53.380;10.034;2024-01-25T01:12:18;13.77;;;2.75;;
27576;SDS011;15011;53.380;10.034;2024-01-25T01:17:18;12.93;;;3.08;;
27576;SDS011;15011;53.380;10.034;2024-01-25T01:22:19;15.47;;;3.23;;
27576;SDS011;15011;53.380;10.034;2024-01-25T01:27:19;17.50;;;3.50;;
27576;SDS011;15011;53.380;10.034;2024-01-25T01:32:21;13.95;;;3.15;;
27576;SDS011;15011;53.380;10.034;2024-01-25T01:37:21;15.90;;;3.22;;
27576;SDS011;15011;53.380;10.034;2024-01-25T01:42:22;16.07;;;3.13;;
27576;SDS011;15011;53.380;10.034;2024-01-25T01:47:22;20.85;;;4.32;;
27576;SDS011;15011;53.380;10.034;2024-01-25T01:52:23;17.70;;;3.13;;
27576;SDS011;15011;53.380;10.034;2024-01-25T01:57:23;22.20;;;3.47;;
27576;SDS011;15011;53.380;10.034;2024-01-25T02:02:25;19.17;;;3.65;;
27576;SDS011;15011;53.380;10.034;2024-01-25T02:07:26;19.08;;;3.05;;
27576;SDS011;15011;53.380;10.034;2024-01-25T02:12:26;23.42;;;2.65;;
27576;SDS011;15011;53.380;10.034;2024-01-25T02:17:27;14.10;;;3.57;;
27576;SDS011;15011;53.380;10.034;2024-01-25T02:22:27;16.77;;;3.07;;
27576;SDS011;15011;53.380;10.034;2024-01-25T02:27:27;12.03;;;2.90;;
27576;SDS011;15011;53.380;10.034;2024-01-25T02:32:28;17.65;;;3.75;;
27576;SDS011;15011;53.380;10.034;2024-01-25T02:37:28;19.27;;;2.70;;
27576;SDS011;15011;53.380;10.034;2024-01-25T02:42:28;20.67;;;2.83;;
27576;SDS011;15011;53.380;10.034;2024-01-25T02:47:29;18.07;;;2.57;;
27576;SDS011;15011;53.380;10.034;2024-01-25T02:52:29;18.93;;;3.73;;
27576;SDS011;15011;53.380;10.034;2024-01-25T02:57:30;20.20;;;3.50;;
27576;SDS011;15011;53.380;10.034;2024-01-25T03:02:31;24.10;;;4.03;;
27576;SDS011;15011;53.380;10.034;2024-01-25T03:07:32;18.92;;;4.22;;
27576;SDS011;15011;53.380;10.034;2024-01-25T03:12:32;11.40;;;2.30;;
27576;SDS011;15011;53.380;10.034;2024-01-25T03:17:32;25.50;;;3.40;;
27576;SDS011;15011;53.380;10.034;2024-01-25T03:22:33;19.93;;;4.47;;
27576;SDS011;15011;53.380;10.034;2024-01-25T03:27:33;14.20;;;2.40;;
27576;SDS011;15011;53.380;10.034;2024-01-25T03:32:34;10.38;;;2.50;;
27576;SDS011;15011;53.380;10.034;2024-01-25T03:37:34;17.10;;;2.83;;
27576;SDS011;15011;53.380;10.034;2024-01-25T03:42:35;16.50;;;3.60;;
27576;SDS011;15011;53.380;10.034;2024-01-25T03:47:35;18.47;;;2.80;;
27576;SDS011;15011;53.380;10.034;2024-01-25T03:52:35;24.03;;;4.20;;
27576;SDS011;15011;53.380;10.034;2024-01-25T03:57:36;15.87;;;2.83;;
27576;SDS011;15011;53.380;10.034;2024-01-25T04:02:37;10.68;;;2.35;;
27576;SDS011;15011;53.380;10.034;2024-01-25T04:07:37;12.80;;;3.53;;
27576;SDS011;15011;53.380;10.034;2024-01-25T04:12:37;18.35;;;3.47;;
27576;SDS011;15011;53.380;10.034;2024-01-25T04:17:39;12.63;;;2.10;;
27576;SDS011;15011;53.380;10.034;2024-01-25T04:22:39;12.40;;;2.57;;
27576;SDS011;15011;53.380;10.034;2024-01-25T04:27:40;18.65;;;3.20;;
27576;SDS011;15011;53.380;10.034;2024-01-25T04:32:40;15.25;;;2.10;;
27576;SDS011;15011;53.380;10.034;2024-01-25T04:37:41;15.13;;;3.10;;
27576;SDS011;15011;53.380;10.034;2024-01-25T04:42:41;22.13;;;3.73;;
27576;SDS011;15011;53.380;10.034;2024-01-25T04:47:41;17.00;;;2.30;;
27576;SDS011;15011;53.380;10.034;2024-01-25T04:52:42;14.63;;;2.80;;
27576;SDS011;15011;53.380;10.034;2024-01-25T04:57:42;18.80;;;3.00;;
27576;SDS011;15011;53.380;10.034;2024-01-25T05:02:44;14.77;;;2.25;;
27576;SDS011;15011;53.380;10.034;2024-01-25T05:07:44;21.80;;;3.03;;
27576;SDS011;15011;53.380;10.034;2024-01-25T05:12:44;20.63;;;4.33;;
27576;SDS011;15011;53.380;10.034;2024-01-25T05:17:45;14.87;;;3.57;;
27576;SDS011;15011;53.380;10.034;2024-01-25T05:22:45;25.30;;;3.10;;
27576;SDS011;15011;53.380;10.034;2024-01-25T05:27:46;17.92;;;3.05;;
27576;SDS011;15011;53.380;10.034;2024-01-25T05:32:46;20.33;;;3.30;;
27576;SDS011;15011;53.380;10.034;2024-01-25T05:37:48;14.65;;;2.92;;
27576;SDS011;15011;53.380;10.034;2024-01-25T05:42:49;17.58;;;2.55;;
27576;SDS011;15011;53.380;10.034;2024-01-25T05:47:49;19.80;;;2.53;;
27576;SDS011;15011;53.380;10.034;2024-01-25T05:52:50;23.27;;;2.55;;
27576;SDS011;15011;53.380;10.034;2024-01-25T05:57:50;14.63;;;2.80;;
27576;SDS011;15011;53.380;10.034;2024-01-25T06:02:50;16.90;;;2.80;;
27576;SDS011;15011;53.380;10.034;2024-01-25T06:07:51;20.33;;;3.33;;
27576;SDS011;15011;53.380;10.034;2024-01-25T06:12:51;16.13;;;3.47;;
27576;SDS011;15011;53.380;10.034;2024-01-25T06:17:52;17.95;;;2.40;;
27576;SDS011;15011;53.380;10.034;2024-01-25T06:22:53;19.10;;;3.30;;
27576;SDS011;15011;53.380;10.034;2024-01-25T06:27:53;19.40;;;3.53;;
27576;SDS011;15011;53.380;10.034;2024-01-25T06:32:54;19.92;;;3.30;;
27576;SDS011;15011;53.380;10.034;2024-01-25T06:37:55;21.33;;;2.77;;
27576;SDS011;15011;53.380;10.034;2024-01-25T06:42:55;13.83;;;2.70;;
27576;SDS011;15011;53.380;10.034;2024-01-25T06:47:56;16.33;;;3.03;;
27576;SDS011;15011;53.380;10.034;2024-01-25T06:52:56;15.27;;;2.83;;
27576;SDS011;15011;53.380;10.034;2024-01-25T06:57:56;19.67;;;3.50;;
27576;SDS011;15011;53.380;10.034;2024-01-25T07:02:57;18.55;;;2.80;;
27576;SDS011;15011;53.380;10.034;2024-01-25T07:07:58;20.13;;;4.43;;
27576;SDS011;15011;53.380;10.034;2024-01-25T07:12:59;18.42;;;3.78;;
27576;SDS011;15011;53.380;10.034;2024-01-25T07:17:59;21.30;;;4.03;;
27576;SDS011;15011;53.380;10.034;2024-01-25T07:22:59;16.90;;;2.87;;
27576;SDS011;15011;53.380;10.034;2024-01-25T07:28:00;16.27;;;2.93;;
27576;SDS011;15011;53.380;10.034;2024-01-25T07:33:00;14.00;;;1.80;;
27576;SDS011;15011;53.380;10.034;2024-01-25T07:38:01;14.82;;;2.42;;
27576;SDS011;15011;53.380;10.034;2024-01-25T07:43:02;18.20;;;2.80;;
27576;SDS011;15011;53.380;10.034;2024-01-25T07:48:03;14.20;;;2.75;;
27576;SDS011;15011;53.380;10.034;2024-01-25T07:53:04;17.05;;;3.22;;
27576;SDS011;15011;53.380;10.034;2024-01-25T07:58:04;15.48;;;2.50;;
27576;SDS011;15011;53.380;10.034;2024-01-25T08:03:05;17.30;;;2.27;;
27576;SDS011;15011;53.380;10.034;2024-01-25T08:08:05;13.90;;;2.63;;
27576;SDS011;15011;53.380;10.034;2024-01-25T08:13:06;16.65;;;2.67;;
27576;SDS011;15011;53.380;10.034;2024-01-25T08:18:06;12.20;;;2.77;;
27576;SDS011;15011;53.380;10.034;2024-01-25T08:23:07;16.67;;;2.73;;
27576;SDS011;15011;53.380;10.034;2024-01-25T08:33:09;14.57;;;2.03;;
27576;SDS011;15011;53.380;10.034;2024-01-25T08:38:09;22.83;;;3.07;;
27576;SDS011;15011;53.380;10.034;2024-01-25T08:43:10;18.60;;;2.83;;
27576;SDS011;15011;53.380;10.034;2024-01-25T08:48:10;17.95;;;3.38;;
27576;SDS011;15011;53.380;10.034;2024-01-25T08:53:13;12.77;;;2.35;;
27576;SDS011;15011;53.380;10.034;2024-01-25T08:58:13;16.50;;;2.27;;
27576;SDS011;15011;53.380;10.034;2024-01-25T09:03:14;14.13;;;2.40;;
27576;SDS011;15011;53.380;10.034;2024-01-25T09:08:15;16.75;;;2.53;;
27576;SDS011;15011;53.380;10.034;2024-01-25T09:13:15;19.27;;;3.57;;
27576;SDS011;15011;53.380;10.034;2024-01-25T09:18:16;15.87;;;3.10;;
27576;SDS011;15011;53.380;10.034;2024-01-25T09:23:16;16.10;;;3.83;;
27576;SDS011;15011;53.380;10.034;2024-01-25T09:28:17;12.65;;;2.63;;
27576;SDS011;15011;53.380;10.034;2024-01-25T09:33:18;26.58;;;4.55;;
27576;SDS011;15011;53.380;10.034;2024-01-25T09:38:18;12.27;;;1.83;;
27576;SDS011;15011;53.380;10.034;2024-01-25T09:43:18;13.50;;;2.17;;
27576;SDS011;15011;53.380;10.034;2024-01-25T09:48:20;21.52;;;3.13;;
27576;SDS011;15011;53.380;10.034;2024-01-25T09:53:21;11.88;;;2.25;;
27576;SDS011;15011;53.380;10.034;2024-01-25T09:58:22;16.23;;;2.17;;
27576;SDS011;15011;53.380;10.034;2024-01-25T10:03:23;14.35;;;2.40;;
27576;SDS011;15011;53.380;10.034;2024-01-25T10:08:23;16.17;;;3.70;;
27576;SDS011;15011;53.380;10.034;2024-01-25T10:13:24;20.93;;;3.33;;
27576;SDS011;15011;53.380;10.034;2024-01-25T10:18:27;11.87;;;1.97;;
27576;SDS011;15011;53.380;10.034;2024-01-25T10:23:28;13.73;;;2.42;;
27576;SDS011;15011;53.380;10.034;2024-01-25T10:28:29;15.43;;;2.38;;
27576;SDS011;15011;53.380;10.034;2024-01-25T10:33:31;10.90;;;3.13;;
27576;SDS011;15011;53.380;10.034;2024-01-25T10:38:33;18.73;;;3.25;;
27576;SDS011;15011;53.380;10.034;2024-01-25T10:43:35;12.95;;;2.50;;
27576;SDS011;15011;53.380;10.034;2024-01-25T10:48:36;18.05;;;2.95;;
27576;SDS011;15011;53.380;10.034;2024-01-25T10:53:38;11.48;;;2.40;;
27576;SDS011;15011;53.380;10.034;2024-01-25T10:58:40;17.38;;;2.75;;
27576;SDS011;15011;53.380;10.034;2024-01-25T11:03:41;19.55;;;2.72;;
27576;SDS011;15011;53.380;10.034;2024-01-25T11:08:41;18.60;;;2.95;;
27576;SDS011;15011;53.380;10.034;2024-01-25T11:13:42;17.42;;;2.95;;
27576;SDS011;15011;53.380;10.034;2024-01-25T11:18:50;21.00;;;3.53;;
27576;SDS011;15011;53.380;10.034;2024-01-25T11:23:58;15.23;;;3.50;;
27576;SDS011;15011;53.380;10.034;2024-01-25T11:29:02;16.02;;;3.53;;
27576;SDS011;15011;53.380;10.034;2024-01-25T11:34:02;12.30;;;2.70;;
27576;SDS011;15011;53.380;10.034;2024-01-25T11:39:03;20.03;;;3.77;;
27576;SDS011;15011;53.380;10.034;2024-01-25T11:44:04;16.00;;;3.45;;
27576;SDS011;15011;53.380;10.034;2024-01-25T11:49:04;12.45;;;2.80;;
27576;SDS011;15011;53.380;10.034;2024-01-25T11:54:05;22.70;;;3.35;;
27576;SDS011;15011;53.380;10.034;2024-01-25T11:59:07;14.25;;;3.10;;
27576;SDS011;15011;53.380;10.034;2024-01-25T12:04:08;15.20;;;3.90;;
27576;SDS011;15011;53.380;10.034;2024-01-25T12:09:09;10.70;;;2.78;;
27576;SDS011;15011;53.380;10.034;2024-01-25T12:14:10;15.18;;;2.75;;
27576;SDS011;15011;53.380;10.034;2024-01-25T12:19:10;13.23;;;1.98;;
27576;SDS011;15011;53.380;10.034;2024-01-25T12:24:11;14.07;;;2.10;;
27576;SDS011;15011;53.380;10.034;2024-01-25T12:29:12;10.32;;;1.90;;
27576;SDS011;15011;53.380;10.034;2024-01-25T12:34:13;16.58;;;3.53;;
27576;SDS011;15011;53.380;10.034;2024-01-25T12:39:16;10.80;;;2.45;;
27576;SDS011;15011;53.380;10.034;2024-01-25T12:44:17;9.90;;;2.27;;
27576;SDS011;15011;53.380;10.034;2024-01-25T12:49:18;11.38;;;2.13;;
27576;SDS011;15011;53.380;10.034;2024-01-25T12:54:18;9.98;;;2.58;;
27576;SDS011;15011;53.380;10.034;2024-01-25T12:59:18;14.17;;;3.47;;
27576;SDS011;15011;53.380;10.034;2024-01-25T13:04:19;8.43;;;2.63;;
27576;SDS011;15011;53.380;10.034;2024-01-25T13:09:21;15.63;;;2.45;;
27576;SDS011;15011;53.380;10.034;2024-01-25T13:14:22;11.25;;;2.97;;
27576;SDS011;15011;53.380;10.034;2024-01-25T13:19:22;11.77;;;2.87;;
27576;SDS011;15011;53.380;10.034;2024-01-25T13:24:23;16.43;;;3.43;;
27576;SDS011;15011;53.380;10.034;2024-01-25T13:29:23;10.37;;;2.57;;
27576;SDS011;15011;53.380;10.034;2024-01-25T13:34:24;18.02;;;3.30;;
27576;SDS011;15011;53.380;10.034;2024-01-25T13:39:25;18.95;;;3.33;;
27576;SDS011;15011;53.380;10.034;2024-01-25T13:44:25;18.33;;;2.78;;
27576;SDS011;15011;53.380;10.034;2024-01-25T13:49:26;11.13;;;2.80;;
27576;SDS011;15011;53.380;10.034;2024-01-25T13:54:26;17.90;;;3.53;;
27576;SDS011;15011;53.380;10.034;2024-01-25T13:59:27;7.30;;;2.40;;
27576;SDS011;15011;53.380;10.034;2024-01-25T14:04:27;17.10;;;3.90;;
27576;SDS011;15011;53.380;10.034;2024-01-25T14:09:28;11.97;;;2.30;;
27576;SDS011;15011;53.380;10.034;2024-01-25T14:14:29;13.40;;;2.58;;
27576;SDS011;15011;53.380;10.034;2024-01-25T14:19:30;11.27;;;2.10;;
27576;SDS011;15011;53.380;10.034;2024-01-25T14:24:30;8.77;;;2.20;;
27576;SDS011;15011;53.380;10.034;2024-01-25T14:29:31;10.43;;;1.95;;
27576;SDS011;15011;53.380;10.034;2024-01-25T14:34:33;9.43;;;2.75;;
27576;SDS011;15011;53.380;10.034;2024-01-25T14:39:36;9.10;;;1.88;;
27576;SDS011;15011;53.380;10.034;2024-01-25T14:44:37;13.30;;;2.30;;
27576;SDS011;15011;53.380;10.034;2024-01-25T14:49:38;11.82;;;2.15;;
27576;SDS011;15011;53.380;10.034;2024-01-25T14:54:38;8.43;;;1.85;;
27576;SDS011;15011;53.380;10.034;2024-01-25T14:59:38;9.80;;;2.23;;
27576;SDS011;15011;53.380;10.034;2024-01-25T15:04:39;10.30;;;2.17;;
27576;SDS011;15011;53.380;10.034;2024-01-25T15:09:39;10.70;;;2.27;;
27576;SDS011;15011;53.380;10.034;2024-01-25T15:14:40;9.13;;;2.05;;
27576;SDS011;15011;53.380;10.034;2024-01-25T15:19:41;8.05;;;1.67;;
27576;SDS011;15011;53.380;10.034;2024-01-25T15:24:41;11.37;;;2.60;;
27576;SDS011;15011;53.380;10.034;2024-01-25T15:29:41;16.60;;;1.87;;
27576;SDS011;15011;53.380;10.034;2024-01-25T15:34:42;9.60;;;2.33;;
27576;SDS011;15011;53.380;10.034;2024-01-25T15:39:42;11.60;;;2.00;;
27576;SDS011;15011;53.380;10.034;2024-01-25T15:44:44;12.73;;;2.17;;
27576;SDS011;15011;53.380;10.034;2024-01-25T15:49:44;8.67;;;2.00;;
27576;SDS011;15011;53.380;10.034;2024-01-25T15:54:45;10.33;;;2.13;;
27576;SDS011;15011;53.380;10.034;2024-01-25T15:59:46;18.65;;;3.08;;
27576;SDS011;15011;53.380;10.034;2024-01-25T16:09:48;13.02;;;2.65;;
27576;SDS011;15011;53.380;10.034;2024-01-25T16:14:49;9.60;;;2.33;;
27576;SDS011;15011;53.380;10.034;2024-01-25T16:19:51;16.13;;;2.63;;
27576;SDS011;15011;53.380;10.034;2024-01-25T16:24:51;11.95;;;2.80;;
27576;SDS011;15011;53.380;10.034;2024-01-25T16:29:52;10.60;;;3.00;;
27576;SDS011;15011;53.380;10.034;2024-01-25T16:34:52;14.47;;;3.33;;
27576;SDS011;15011;53.380;10.034;2024-01-25T16:39:53;10.90;;;2.83;;
27576;SDS011;15011;53.380;10.034;2024-01-25T16:44:53;14.27;;;2.97;;
27576;SDS011;15011;53.380;10.034;2024-01-25T16:49:53;15.13;;;2.97;;
27576;SDS011;15011;53.380;10.034;2024-01-25T16:54:54;12.90;;;2.95;;
27576;SDS011;15011;53.380;10.034;2024-01-25T16:59:54;19.85;;;2.97;;
27576;SDS011;15011;53.380;10.034;2024-01-25T17:04:55;10.60;;;2.83;;
27576;SDS011;15011;53.380;10.034;2024-01-25T17:09:56;11.27;;;2.90;;
27576;SDS011;15011;53.380;10.034;2024-01-25T17:14:56;10.30;;;2.97;;
27576;SDS011;15011;53.380;10.034;2024-01-25T17:19:56;12.53;;;3.60;;
27576;SDS011;15011;53.380;10.034;2024-01-25T17:24:57;15.23;;;3.30;;
27576;SDS011;15011;53.380;10.034;2024-01-25T17:29:57;14.75;;;3.40;;
27576;SDS011;15011;53.380;10.034;2024-01-25T17:34:58;10.63;;;3.63;;
27576;SDS011;15011;53.380;10.034;2024-01-25T17:39:58;11.67;;;3.47;;
27576;SDS011;15011;53.380;10.034;2024-01-25T17:44:59;17.60;;;3.80;;
27576;SDS011;15011;53.380;10.034;2024-01-25T17:50:00;16.50;;;4.40;;
27576;SDS011;15011;53.380;10.034;2024-01-25T17:55:00;18.43;;;4.03;;
27576;SDS011;15011;53.380;10.034;2024-01-25T18:00:01;12.07;;;3.00;;
27576;SDS011;15011;53.380;10.034;2024-01-25T18:05:01;15.05;;;3.58;;
27576;SDS011;15011;53.380;10.034;2024-01-25T18:10:02;14.93;;;3.95;;
27576;SDS011;15011;53.380;10.034;2024-01-25T18:15:03;15.90;;;4.13;;
27576;SDS011;15011;53.380;10.034;2024-01-25T18:20:05;12.18;;;5.05;;
27576;SDS011;15011;53.380;10.034;2024-01-25T18:25:06;14.88;;;4.22;;
27576;SDS011;15011;53.380;10.034;2024-01-25T18:30:07;16.92;;;4.38;;
27576;SDS011;15011;53.380;10.034;2024-01-25T18:35:08;15.95;;;5.18;;
27576;SDS011;15011;53.380;10.034;2024-01-25T18:40:08;15.53;;;4.33;;
27576;SDS011;15011;53.380;10.034;2024-01-25T18:45:09;16.45;;;4.20;;
27576;SDS011;15011;53.380;10.034;2024-01-25T18:50:10;15.20;;;4.13;;
27576;SDS011;15011;53.380;10.034;2024-01-25T18:55:10;18.25;;;4.25;;
27576;SDS011;15011;53.380;10.034;2024-01-25T19:00:11;22.90;;;5.60;;
27576;SDS011;15011;53.380;10.034;2024-01-25T19:05:12;13.55;;;4.00;;
27576;SDS011;15011;53.380;10.034;2024-01-25T19:10:13;15.13;;;4.07;;
27576;SDS011;15011;53.380;10.034;2024-01-25T19:15:14;13.00;;;4.63;;
27576;SDS011;15011;53.380;10.034;2024-01-25T19:20:15;18.70;;;5.60;;
27576;SDS011;15011;53.380;10.034;2024-01-25T19:25:15;23.15;;;6.68;;
27576;SDS011;15011;53.380;10.034;2024-01-25T19:30:16;21.52;;;6.20;;
27576;SDS011;15011;53.380;10.034;2024-01-25T19:35:17;20.88;;;6.22;;
27576;SDS011;15011;53.380;10.034;2024-01-25T19:40:18;20.55;;;5.95;;
27576;SDS011;15011;53.380;10.034;2024-01-25T19:45:19;20.17;;;6.65;;
27576;SDS011;15011;53.380;10.034;2024-01-25T19:50:19;12.68;;;5.68;;
27576;SDS011;15011;53.380;10.034;2024-01-25T19:55:20;18.40;;;6.43;;
27576;SDS011;15011;53.380;10.034;2024-01-25T20:00:21;21.70;;;6.88;;
27576;SDS011;15011;53.380;10.034;2024-01-25T20:05:22;20.00;;;7.00;;
27576;SDS011;15011;53.380;10.034;2024-01-25T20:10:23;21.48;;;6.60;;
27576;SDS011;15011;53.380;10.034;2024-01-25T20:15:23;18.57;;;6.03;;
27576;SDS011;15011;53.380;10.034;2024-01-25T20:20:24;22.37;;;7.50;;
27576;SDS011;15011;53.380;10.034;2024-01-25T20:25:24;26.83;;;6.93;;
27576;SDS011;15011;53.380;10.034;2024-01-25T20:30:25;23.17;;;5.90;;
27576;SDS011;15011;53.380;10.034;2024-01-25T20:35:28;20.85;;;6.75;;
27576;SDS011;15011;53.380;10.034;2024-01-25T20:40:28;18.57;;;5.43;;
27576;SDS011;15011;53.380;10.034;2024-01-25T20:45:31;28.75;;;6.85;;
27576;SDS011;15011;53.380;10.034;2024-01-25T20:50:32;20.40;;;6.10;;
27576;SDS011;15011;53.380;10.034;2024-01-25T20:55:32;16.03;;;5.23;;
27576;SDS011;15011;53.380;10.034;2024-01-25T21:00:33;13.93;;;5.05;;
27576;SDS011;15011;53.380;10.034;2024-01-25T21:05:33;17.80;;;5.50;;
27576;SDS011;15011;53.380;10.034;2024-01-25T21:10:34;22.15;;;6.15;;
27576;SDS011;15011;53.380;10.034;2024-01-25T21:15:35;18.15;;;5.45;;
27576;SDS011;15011;53.380;10.034;2024-01-25T21:20:35;17.47;;;5.30;;
27576;SDS011;15011;53.380;10.034;2024-01-25T21:25:36;19.80;;;6.43;;
27576;SDS011;15011;53.380;10.034;2024-01-25T21:30:36;20.57;;;6.40;;
27576;SDS011;15011;53.380;10.034;2024-01-25T21:35:37;16.73;;;5.47;;
27576;SDS011;15011;53.380;10.034;2024-01-25T21:40:37;18.80;;;4.93;;
27576;SDS011;15011;53.380;10.034;2024-01-25T21:45:38;14.73;;;5.87;;
27576;SDS011;15011;53.380;10.034;2024-01-25T21:50:38;19.17;;;5.40;;
27576;SDS011;15011;53.380;10.034;2024-01-25T21:55:38;21.87;;;6.07;;
27576;SDS011;15011;53.380;10.034;2024-01-25T22:00:41;21.20;;;5.35;;
27576;SDS011;15011;53.380;10.034;2024-01-25T22:05:41;19.90;;;5.57;;
27576;SDS011;15011;53.380;10.034;2024-01-25T22:10:42;17.20;;;4.37;;
27576;SDS011;15011;53.380;10.034;2024-01-25T22:15:42;20.67;;;4.70;;
27576;SDS011;15011;53.380;10.034;2024-01-25T22:20:43;19.47;;;5.00;;
27576;SDS011;15011;53.380;10.034;2024-01-25T22:25:43;21.10;;;4.83;;
27576;SDS011;15011;53.380;10.034;2024-01-25T22:30:44;23.57;;;5.60;;
27576;SDS011;15011;53.380;10.034;2024-01-25T22:35:44;17.55;;;4.93;;
27576;SDS011;15011;53.380;10.034;2024-01-25T22:40:44;18.30;;;4.63;;
27576;SDS011;15011;53.380;10.034;2024-01-25T22:45:45;20.37;;;4.83;;
27576;SDS011;15011;53.380;10.034;2024-01-25T22:50:45;19.37;;;5.03;;
27576;SDS011;15011;53.380;10.034;2024-01-25T22:55:46;15.60;;;4.67;;
27576;SDS011;15011;53.380;10.034;2024-01-25T23:00:46;15.03;;;4.70;;
27576;SDS011;15011;53.380;10.034;2024-01-25T23:05:47;19.23;;;5.63;;
27576;SDS011;15011;53.380;10.034;2024-01-25T23:10:48;16.55;;;5.30;;
27576;SDS011;15011;53.380;10.034;2024-01-25T23:15:48;18.33;;;4.73;;
27576;SDS011;15011;53.380;10.034;2024-01-25T23:20:50;20.60;;;5.03;;
27576;SDS011;15011;53.380;10.034;2024-01-25T23:25:50;19.10;;;5.05;;
27576;SDS011;15011;53.380;10.034;2024-01-25T23:30:51;16.50;;;4.47;;
27576;SDS011;15011;53.380;10.034;2024-01-25T23:35:51;16.70;;;4.57;;
27576;SDS011;15011;53.380;10.034;2024-01-25T23:40:52;18.57;;;5.37;;
27576;SDS011;15011;53.380;10.034;2024-01-25T23:45:52;16.23;;;4.33;;
27576;SDS011;15011;53.380;10.034;2024-01-25T23:50:53;19.15;;;5.43;;
27576;SDS011;15011;53.380;10.034;2024-01-25T23:55:53;20.43;;;5.33;;
